createdAt,value
2023-05-12T00:01:50.824Z,100.00
2023-05-12T00:04:21.817Z,100.00
2023-05-12T00:06:58.723Z,100.00
2023-05-12T00:09:31.606Z,100.00
2023-05-12T00:12:13.140Z,100.00
2023-05-12T00:14:51.897Z,100.00
2023-05-12T00:17:38.438Z,100.00
2023-05-12T00:20:17.963Z,100.00
2023-05-12T00:23:05.783Z,100.00
2023-05-12T00:25:45.143Z,100.00
2023-05-12T00:28:20.443Z,100.00
2023-05-12T00:31:03.295Z,100.00
2023-05-12T00:33:43.692Z,100.00
2023-05-12T00:36:22.468Z,100.00
2023-05-12T00:39:04.755Z,100.00
2023-05-12T00:41:45.483Z,100.00
2023-05-12T00:44:24.040Z,100.00
2023-05-12T00:47:04.540Z,100.00
2023-05-12T00:49:43.531Z,100.00
2023-05-12T00:52:17.160Z,100.00
2023-05-12T00:54:51.696Z,100.00
2023-05-12T00:57:27.984Z,100.00
2023-05-12T01:00:11.923Z,100.00
2023-05-12T01:02:50.702Z,100.00
2023-05-12T01:05:20.680Z,100.00
2023-05-12T01:08:07.109Z,100.00
2023-05-12T01:10:45.242Z,100.00
2023-05-12T01:13:16.589Z,100.00
2023-05-12T01:15:53.928Z,100.00
2023-05-12T01:18:35.239Z,100.00
2023-05-12T01:21:12.359Z,100.00
2023-05-12T01:23:52.924Z,100.00
2023-05-12T01:26:35.859Z,100.00
2023-05-12T01:29:15.259Z,98.71
2023-05-12T01:31:58.567Z,90.24
2023-05-12T01:34:38.667Z,79.10
2023-05-12T01:37:14.839Z,69.29
2023-05-12T01:39:43.675Z,62.22
2023-05-12T01:42:20.262Z,57.84
2023-05-12T01:45:01.361Z,55.37
2023-05-12T01:47:43.098Z,54.03
2023-05-12T01:50:25.298Z,52.51
2023-05-12T01:53:05.982Z,51.28
2023-05-12T01:55:49.342Z,50.23
2023-05-12T01:58:33.984Z,49.13
2023-05-12T02:01:03.440Z,48.23
2023-05-12T02:03:32.919Z,47.48
2023-05-12T02:06:00.871Z,46.89
2023-05-12T02:08:36.024Z,46.43
2023-05-12T02:11:16.417Z,46.02
2023-05-12T02:14:01.742Z,45.65
2023-05-12T02:16:39.757Z,45.21
2023-05-12T02:19:21.562Z,44.82
2023-05-12T02:22:00.706Z,44.58
2023-05-12T02:24:39.435Z,44.39
2023-05-12T02:27:15.883Z,44.04
2023-05-12T02:29:47.372Z,44.02
2023-05-12T02:32:28.028Z,43.90
2023-05-12T02:35:07.589Z,43.81
2023-05-12T02:37:56.627Z,43.85
2023-05-12T02:40:33.704Z,43.66
2023-05-12T02:43:15.440Z,43.65
2023-05-12T02:45:55.885Z,44.02
2023-05-12T02:48:31.376Z,44.05
2023-05-12T02:51:08.635Z,44.32
2023-05-12T02:53:44.103Z,44.38
2023-05-12T02:56:24.123Z,44.32
2023-05-12T02:59:03.759Z,44.23
2023-05-12T03:01:47.588Z,44.35
2023-05-12T03:04:25.665Z,44.45
2023-05-12T03:07:03.305Z,44.40
2023-05-12T03:09:43.264Z,44.66
2023-05-12T03:12:21.660Z,44.23
2023-05-12T03:15:10.396Z,44.04
2023-05-12T03:17:44.522Z,44.01
2023-05-12T03:20:14.693Z,43.86
2023-05-12T03:22:52.751Z,43.75
2023-05-12T03:25:29.380Z,43.65
2023-05-12T03:28:07.151Z,43.51
2023-05-12T03:30:44.716Z,43.45
2023-05-12T03:33:26.388Z,43.40
2023-05-12T03:36:07.151Z,43.24
2023-05-12T03:38:46.794Z,43.19
2023-05-12T03:41:24.790Z,43.26
2023-05-12T03:43:57.530Z,43.24
2023-05-12T03:46:36.234Z,43.26
2023-05-12T03:49:17.132Z,43.29
2023-05-12T03:51:54.352Z,43.33
2023-05-12T03:54:32.234Z,43.33
2023-05-12T03:57:14.837Z,43.38
2023-05-12T03:59:57.295Z,43.49
2023-05-12T04:02:43.070Z,43.40
2023-05-12T04:05:28.445Z,43.69
2023-05-12T04:08:10.800Z,43.57
2023-05-12T04:10:55.320Z,43.71
2023-05-12T04:13:36.930Z,43.71
2023-05-12T04:16:18.317Z,43.83
2023-05-12T04:18:55.428Z,43.85
2023-05-12T04:21:37.456Z,43.94
2023-05-12T04:24:11.670Z,44.11
2023-05-12T04:26:51.612Z,44.24
2023-05-12T04:29:32.542Z,44.41
2023-05-12T04:32:12.668Z,44.65
2023-05-12T04:34:50.353Z,44.73
2023-05-12T04:37:30.855Z,44.81
2023-05-12T04:40:10.127Z,44.95
2023-05-12T04:42:50.422Z,45.10
2023-05-12T04:45:29.454Z,46.09
2023-05-12T04:48:05.791Z,45.55
2023-05-12T04:50:44.382Z,45.73
2023-05-12T04:53:23.105Z,45.96
2023-05-12T04:55:56.944Z,46.08
2023-05-12T04:58:29.479Z,46.44
2023-05-12T05:01:00.079Z,46.66
2023-05-12T05:03:40.115Z,46.98
2023-05-12T05:06:19.096Z,47.49
2023-05-12T05:08:55.756Z,47.95
2023-05-12T05:11:33.689Z,48.30
2023-05-12T05:14:14.896Z,48.89
2023-05-12T05:16:56.390Z,49.44
2023-05-12T05:19:55.085Z,49.95
2023-05-12T05:22:35.233Z,50.51
2023-05-12T05:25:15.282Z,51.11
2023-05-12T05:27:54.306Z,51.76
2023-05-12T05:30:36.810Z,52.54
2023-05-12T05:33:18.731Z,53.17
2023-05-12T05:36:02.278Z,54.52
2023-05-12T05:38:43.753Z,56.30
2023-05-12T05:41:24.802Z,58.82
2023-05-12T05:44:07.741Z,63.19
2023-05-12T05:46:44.371Z,68.62
2023-05-12T05:49:24.167Z,72.48
2023-05-12T05:52:04.418Z,80.60
2023-05-12T05:54:38.929Z,88.08
2023-05-12T05:57:16.856Z,100.00
2023-05-12T05:59:55.219Z,100.00
2023-05-12T06:02:35.885Z,100.00
2023-05-12T06:05:19.242Z,100.00
2023-05-12T06:07:58.054Z,100.00
2023-05-12T06:10:45.155Z,100.00
2023-05-12T06:13:30.475Z,100.00
2023-05-12T06:16:10.493Z,100.00
2023-05-12T06:18:55.008Z,100.00
2023-05-12T06:21:40.022Z,100.00
2023-05-12T06:24:20.356Z,100.00
2023-05-12T06:27:00.097Z,100.00
2023-05-12T06:29:36.148Z,100.00
2023-05-12T06:32:17.631Z,100.00
2023-05-12T06:34:56.884Z,100.00
2023-05-12T06:37:33.566Z,100.00
2023-05-12T06:40:13.558Z,100.00
2023-05-12T06:42:51.985Z,100.00
2023-05-12T06:45:39.397Z,100.00
2023-05-12T06:48:25.245Z,100.00
2023-05-12T06:51:10.066Z,100.00
2023-05-12T06:53:49.857Z,100.00
2023-05-12T06:56:32.084Z,100.00
2023-05-12T06:59:10.904Z,100.00
2023-05-12T07:01:54.251Z,100.00
2023-05-12T07:04:32.494Z,100.00
2023-05-12T07:07:04.742Z,100.00
2023-05-12T07:09:49.303Z,100.00
2023-05-12T07:12:32.376Z,100.00
2023-05-12T07:15:15.876Z,100.00
2023-05-12T07:17:59.039Z,100.00
2023-05-12T07:20:39.726Z,100.00
2023-05-12T07:23:12.698Z,100.00
2023-05-12T07:25:45.370Z,100.00
2023-05-12T07:28:28.586Z,100.00
2023-05-12T07:31:11.610Z,100.00
2023-05-12T07:33:55.912Z,100.00
2023-05-12T07:36:43.966Z,100.00
2023-05-12T07:39:25.668Z,100.00
2023-05-12T07:42:03.902Z,100.00
2023-05-12T07:44:43.947Z,100.00
2023-05-12T07:47:17.679Z,100.00
2023-05-12T07:50:00.989Z,100.00
2023-05-12T07:52:47.753Z,100.00
2023-05-12T07:55:28.924Z,100.00
2023-05-12T07:58:15.963Z,100.00
2023-05-12T08:00:51.055Z,100.00
2023-05-12T08:03:39.040Z,100.00
2023-05-12T08:06:22.357Z,100.00
2023-05-12T08:09:03.967Z,100.00
2023-05-12T08:11:43.250Z,100.00
2023-05-12T08:14:27.132Z,100.00
2023-05-12T08:17:06.698Z,100.00
2023-05-12T08:19:41.915Z,100.00
2023-05-12T08:22:18.084Z,100.00
2023-05-12T08:24:56.381Z,100.00
2023-05-12T08:27:38.100Z,100.00
2023-05-12T08:30:26.025Z,100.00
2023-05-12T08:33:09.074Z,100.00
2023-05-12T08:35:44.025Z,100.00
2023-05-12T08:38:24.541Z,100.00
2023-05-12T08:41:23.348Z,100.00
2023-05-12T08:44:01.132Z,100.00
2023-05-12T08:46:44.514Z,100.00
2023-05-12T08:49:25.837Z,100.00
2023-05-12T08:52:03.320Z,100.00
2023-05-12T08:54:48.673Z,100.00
2023-05-12T08:57:36.949Z,100.00
2023-05-12T09:00:22.621Z,100.00
2023-05-12T09:03:00.422Z,100.00
2023-05-12T09:05:45.821Z,100.00
2023-05-12T09:08:30.932Z,100.00
2023-05-12T09:11:13.811Z,100.00
2023-05-12T09:14:01.373Z,100.00
2023-05-12T09:16:48.686Z,100.00
2023-05-12T09:19:23.056Z,100.00
2023-05-12T09:22:03.479Z,100.00
2023-05-12T09:24:39.813Z,100.00
2023-05-12T09:27:30.456Z,100.00
2023-05-12T09:30:14.941Z,100.00
2023-05-12T09:32:54.121Z,100.00
2023-05-12T09:35:31.787Z,100.00
2023-05-12T09:38:14.795Z,100.00
2023-05-12T09:40:59.709Z,100.00
2023-05-12T09:43:47.460Z,100.00
2023-05-12T09:46:29.132Z,100.00
2023-05-12T09:49:03.774Z,100.00
2023-05-12T09:51:37.468Z,100.00
2023-05-12T09:54:14.063Z,100.00
2023-05-12T09:57:02.505Z,100.00
2023-05-12T09:59:54.781Z,100.00
2023-05-12T10:02:30.246Z,100.00
2023-05-12T10:05:21.050Z,100.00
2023-05-12T10:08:04.756Z,100.00
2023-05-12T10:10:42.988Z,100.00
2023-05-12T10:13:22.409Z,100.00
2023-05-12T10:16:08.338Z,100.00
2023-05-12T10:18:48.570Z,100.00
2023-05-12T10:21:33.320Z,100.00
2023-05-12T10:24:17.610Z,100.00
2023-05-12T10:26:59.687Z,100.00
2023-05-12T10:29:42.834Z,100.00
2023-05-12T10:32:18.662Z,100.00
2023-05-12T10:35:09.076Z,100.00
2023-05-12T10:37:50.838Z,100.00
2023-05-12T10:40:32.000Z,100.00
2023-05-12T10:43:26.885Z,100.00
2023-05-12T10:46:08.815Z,100.00
2023-05-12T10:49:00.755Z,100.00
2023-05-12T10:51:49.663Z,100.00
2023-05-12T10:54:41.403Z,100.00
2023-05-12T10:57:21.593Z,100.00
2023-05-12T11:00:06.056Z,100.00
2023-05-12T11:02:52.029Z,100.00
2023-05-12T11:05:37.653Z,100.00
2023-05-12T11:08:19.825Z,100.00
2023-05-12T11:10:59.996Z,100.00
2023-05-12T11:13:39.446Z,100.00
2023-05-12T11:16:22.294Z,100.00
2023-05-12T11:19:02.025Z,100.00
2023-05-12T11:21:42.797Z,100.00
2023-05-12T11:24:21.314Z,100.00
2023-05-12T11:26:57.495Z,100.00
2023-05-12T11:29:35.588Z,100.00
2023-05-12T11:32:16.472Z,100.00
2023-05-12T11:35:09.744Z,100.00
2023-05-12T11:37:59.611Z,100.00
2023-05-12T11:40:33.523Z,100.00
2023-05-12T11:43:10.856Z,100.00
2023-05-12T11:45:50.367Z,100.00
2023-05-12T11:48:34.686Z,100.00
2023-05-12T11:51:11.705Z,100.00
2023-05-12T11:53:53.022Z,100.00
2023-05-12T11:56:36.871Z,100.00
2023-05-12T11:59:10.553Z,100.00
2023-05-12T12:01:53.105Z,100.00
2023-05-12T12:04:35.789Z,100.00
2023-05-12T12:07:30.163Z,100.00
2023-05-12T12:10:16.101Z,100.00
2023-05-12T12:12:55.782Z,100.00
2023-05-12T12:15:35.594Z,100.00
2023-05-12T12:18:19.505Z,100.00
2023-05-12T12:20:58.973Z,100.00
2023-05-12T12:23:44.096Z,100.00
2023-05-12T12:26:38.905Z,100.00
2023-05-12T12:29:20.816Z,100.00
2023-05-12T12:31:57.638Z,100.00
2023-05-12T12:34:37.346Z,100.00
2023-05-12T12:37:17.021Z,100.00
2023-05-12T12:39:55.377Z,100.00
2023-05-12T12:42:41.372Z,100.00
2023-05-12T12:45:20.661Z,100.00
2023-05-12T12:48:09.989Z,100.00
2023-05-12T12:50:50.540Z,100.00
2023-05-12T12:53:35.632Z,100.00
2023-05-12T12:56:13.836Z,100.00
2023-05-12T12:58:59.015Z,100.00
2023-05-12T13:01:40.762Z,100.00
2023-05-12T13:04:22.981Z,100.00
2023-05-12T13:07:07.260Z,100.00
2023-05-12T13:09:47.531Z,100.00
2023-05-12T13:12:31.412Z,100.00
2023-05-12T13:15:13.856Z,100.00
2023-05-12T13:17:52.066Z,100.00
2023-05-12T13:20:35.189Z,100.00
2023-05-12T13:23:08.386Z,100.00
2023-05-12T13:25:48.853Z,100.00
2023-05-12T13:28:24.791Z,100.00
2023-05-12T13:31:10.104Z,100.00
2023-05-12T13:33:53.129Z,100.00
2023-05-12T13:36:32.206Z,100.00
2023-05-12T13:39:11.388Z,100.00
2023-05-12T13:41:45.014Z,100.00
2023-05-12T13:44:15.967Z,100.00
2023-05-12T13:46:54.672Z,100.00
2023-05-12T13:49:33.744Z,100.00
2023-05-12T13:52:11.981Z,100.00
2023-05-12T13:54:56.052Z,100.00
2023-05-12T13:57:34.491Z,100.00
2023-05-12T14:00:17.557Z,100.00
2023-05-12T14:03:01.741Z,100.00
2023-05-12T14:05:38.430Z,100.00
2023-05-12T14:08:12.135Z,100.00
2023-05-12T14:10:53.162Z,100.00
2023-05-12T14:13:33.025Z,100.00
2023-05-12T14:16:18.648Z,100.00
2023-05-12T14:18:56.869Z,100.00
2023-05-12T14:21:41.221Z,100.00
2023-05-12T14:24:21.513Z,100.00
2023-05-12T14:27:04.535Z,100.00
2023-05-12T14:29:41.146Z,100.00
2023-05-12T14:32:19.532Z,100.00
2023-05-12T14:34:55.119Z,100.00
2023-05-12T14:37:28.111Z,100.00
2023-05-12T14:40:10.389Z,100.00
2023-05-12T14:42:48.917Z,100.00
2023-05-12T14:45:26.522Z,100.00
2023-05-12T14:48:10.189Z,100.00
2023-05-12T14:50:45.916Z,100.00
2023-05-12T14:53:19.998Z,100.00
2023-05-12T14:55:52.627Z,100.00
2023-05-12T14:58:28.428Z,100.00
2023-05-12T15:01:06.349Z,100.00
2023-05-12T15:03:46.689Z,100.00
2023-05-12T15:06:29.027Z,100.00
2023-05-12T15:09:10.721Z,100.00
2023-05-12T15:11:51.612Z,100.00
2023-05-12T15:14:25.898Z,100.00
2023-05-12T15:17:06.657Z,100.00
2023-05-12T15:19:46.171Z,100.00
2023-05-12T15:22:31.417Z,100.00
2023-05-12T15:25:12.666Z,100.00
2023-05-12T15:27:48.336Z,100.00
2023-05-12T15:30:22.862Z,100.00
2023-05-12T15:32:59.919Z,100.00
2023-05-12T15:35:40.629Z,100.00
2023-05-12T15:38:27.778Z,100.00
2023-05-12T15:41:01.763Z,100.00
2023-05-12T15:43:31.658Z,100.00
2023-05-12T15:46:04.597Z,100.00
2023-05-12T15:48:42.265Z,100.00
2023-05-12T15:51:20.397Z,100.00
2023-05-12T15:54:03.623Z,100.00
2023-05-12T15:56:39.152Z,100.00
2023-05-12T15:59:13.356Z,100.00
2023-05-12T16:01:44.298Z,100.00
2023-05-12T16:04:29.669Z,100.00
2023-05-12T16:07:09.805Z,100.00
2023-05-12T16:09:50.470Z,100.00
2023-05-12T16:12:27.244Z,100.00
2023-05-12T16:15:11.437Z,100.00
2023-05-12T16:17:51.460Z,100.00
2023-05-12T16:20:24.530Z,100.00
2023-05-12T16:22:53.486Z,100.00
2023-05-12T16:25:24.705Z,100.00
2023-05-12T16:28:00.559Z,100.00
2023-05-12T16:30:39.797Z,100.00
2023-05-12T16:33:20.377Z,100.00
2023-05-12T16:35:54.592Z,100.00
2023-05-12T16:38:32.275Z,100.00
2023-05-12T16:41:13.896Z,100.00
2023-05-12T16:44:01.942Z,100.00
2023-05-12T16:46:41.417Z,100.00
2023-05-12T16:49:23.275Z,100.00
2023-05-12T16:52:02.118Z,100.00
2023-05-12T16:54:46.306Z,100.00
2023-05-12T16:57:31.875Z,100.00
2023-05-12T17:00:14.913Z,100.00
2023-05-12T17:02:53.710Z,100.00
2023-05-12T17:05:38.042Z,100.00
2023-05-12T17:08:21.937Z,100.00
2023-05-12T17:11:09.664Z,100.00
2023-05-12T17:13:50.678Z,100.00
2023-05-12T17:16:34.104Z,100.00
2023-05-12T17:19:14.496Z,100.00
2023-05-12T17:21:52.848Z,100.00
2023-05-12T17:24:34.558Z,100.00
2023-05-12T17:27:08.775Z,100.00
2023-05-12T17:29:54.772Z,100.00
2023-05-12T17:32:25.208Z,100.00
2023-05-12T17:35:06.760Z,100.00
2023-05-12T17:37:47.969Z,99.18
2023-05-12T17:40:28.327Z,82.02
2023-05-12T17:43:11.933Z,68.51
2023-05-12T17:45:46.281Z,61.25
2023-05-12T17:48:30.985Z,56.63
2023-05-12T17:51:09.288Z,54.08
2023-05-12T17:53:51.700Z,53.18
2023-05-12T17:56:29.856Z,52.79
2023-05-12T17:59:09.995Z,52.49
2023-05-12T18:01:53.605Z,51.84
2023-05-12T18:04:37.151Z,51.17
2023-05-12T18:07:23.280Z,50.38
2023-05-12T18:10:01.344Z,50.21
2023-05-12T18:12:41.620Z,50.18
2023-05-12T18:15:28.588Z,50.05
2023-05-12T18:18:10.345Z,50.08
2023-05-12T18:20:59.484Z,50.15
2023-05-12T18:23:33.905Z,50.25
2023-05-12T18:26:08.913Z,50.47
2023-05-12T18:28:54.277Z,50.88
2023-05-12T18:31:44.109Z,51.53
2023-05-12T18:34:25.373Z,52.19
2023-05-12T18:37:04.915Z,53.20
2023-05-12T18:39:43.171Z,54.21
2023-05-12T18:42:18.888Z,55.20
2023-05-12T18:44:54.573Z,56.08
2023-05-12T18:47:33.266Z,56.98
2023-05-12T18:50:16.074Z,57.90
2023-05-12T18:52:59.284Z,59.12
2023-05-12T18:55:28.661Z,60.12
2023-05-12T18:57:58.405Z,61.54
2023-05-12T19:00:33.449Z,62.93
2023-05-12T19:03:13.129Z,64.97
2023-05-12T19:05:52.508Z,67.43
2023-05-12T19:08:32.804Z,70.29
2023-05-12T19:11:09.716Z,73.31
2023-05-12T19:13:47.457Z,76.19
2023-05-12T19:16:25.924Z,78.79
2023-05-12T19:19:06.504Z,80.55
2023-05-12T19:21:44.058Z,79.95
2023-05-12T19:24:26.766Z,79.10
2023-05-12T19:27:11.956Z,76.38
2023-05-12T19:29:48.558Z,73.89
2023-05-12T19:32:35.574Z,70.43
2023-05-12T19:35:15.681Z,68.04
2023-05-12T19:37:55.765Z,65.81
2023-05-12T19:40:39.227Z,65.38
2023-05-12T19:43:17.642Z,63.96
2023-05-12T19:45:58.879Z,62.88
2023-05-12T19:48:37.354Z,61.05
2023-05-12T19:51:18.301Z,59.59
2023-05-12T19:54:04.963Z,58.21
2023-05-12T19:56:50.217Z,56.95
2023-05-12T19:59:24.491Z,55.73
2023-05-12T20:02:06.373Z,54.92
2023-05-12T20:04:49.212Z,54.51
2023-05-12T20:07:29.950Z,54.30
2023-05-12T20:10:02.198Z,54.27
2023-05-12T20:12:31.791Z,54.42
2023-05-12T20:14:59.697Z,54.23
2023-05-12T20:17:37.200Z,54.22
2023-05-12T20:20:14.695Z,54.26
2023-05-12T20:22:53.496Z,54.23
2023-05-12T20:25:33.089Z,54.15
2023-05-12T20:28:17.281Z,54.23
2023-05-12T20:30:57.220Z,54.27
2023-05-12T20:33:41.353Z,54.56
2023-05-12T20:36:15.076Z,54.59
2023-05-12T20:38:53.950Z,54.47
2023-05-12T20:41:33.953Z,54.62
2023-05-12T20:44:15.848Z,54.59
2023-05-12T20:46:56.012Z,54.63
2023-05-12T20:49:33.569Z,54.51
2023-05-12T20:52:09.100Z,54.61
2023-05-12T20:54:57.164Z,54.63
2023-05-12T20:57:31.206Z,54.42
2023-05-12T21:00:14.508Z,54.71
2023-05-12T21:02:52.143Z,54.83
2023-05-12T21:05:41.636Z,55.15
2023-05-12T21:08:25.663Z,55.77
2023-05-12T21:11:04.308Z,56.20
2023-05-12T21:13:41.239Z,56.86
2023-05-12T21:16:25.887Z,58.59
2023-05-12T21:19:02.080Z,60.15
2023-05-12T21:21:31.656Z,61.81
2023-05-12T21:24:06.846Z,63.83
2023-05-12T21:26:38.261Z,66.33
2023-05-12T21:29:06.702Z,69.69
2023-05-12T21:31:47.355Z,74.77
2023-05-12T21:34:23.364Z,81.29
2023-05-12T21:37:06.285Z,90.35
2023-05-12T21:39:50.476Z,95.72
2023-05-12T21:42:30.100Z,98.74
2023-05-12T21:45:03.823Z,99.44
2023-05-12T21:47:50.036Z,100.00
2023-05-12T21:50:31.316Z,100.00
2023-05-12T21:53:09.399Z,98.20
2023-05-12T21:55:53.462Z,95.05
2023-05-12T21:58:28.182Z,96.10
2023-05-12T22:01:03.944Z,97.90
2023-05-12T22:03:33.843Z,97.41
2023-05-12T22:06:03.783Z,100.00
2023-05-12T22:08:34.367Z,100.00
2023-05-12T22:11:12.647Z,100.00
2023-05-12T22:13:52.551Z,100.00
2023-05-12T22:16:40.862Z,100.00
2023-05-12T22:19:28.130Z,100.00
2023-05-12T22:22:13.444Z,100.00
2023-05-12T22:24:52.890Z,100.00
2023-05-12T22:27:35.164Z,100.00
2023-05-12T22:30:10.653Z,100.00
2023-05-12T22:32:49.439Z,100.00
2023-05-12T22:35:30.497Z,100.00
2023-05-12T22:38:08.633Z,100.00
2023-05-12T22:40:50.646Z,100.00
2023-05-12T22:43:35.274Z,100.00
2023-05-12T22:46:13.646Z,100.00
2023-05-12T22:48:53.601Z,100.00
2023-05-12T22:51:29.222Z,100.00
2023-05-12T22:54:09.065Z,100.00
2023-05-12T22:56:47.902Z,100.00
2023-05-12T22:59:25.523Z,100.00
2023-05-12T23:02:11.615Z,100.00
2023-05-12T23:04:51.009Z,100.00
2023-05-12T23:07:29.485Z,100.00
2023-05-12T23:10:07.011Z,100.00
2023-05-12T23:12:47.007Z,100.00
2023-05-12T23:15:31.743Z,100.00
2023-05-12T23:18:10.546Z,100.00
2023-05-12T23:20:43.412Z,100.00
2023-05-12T23:23:24.590Z,100.00
2023-05-12T23:26:04.134Z,100.00
2023-05-12T23:28:48.755Z,100.00
2023-05-12T23:31:26.608Z,100.00
2023-05-12T23:34:05.700Z,100.00
2023-05-12T23:36:44.122Z,100.00
2023-05-12T23:39:21.939Z,100.00
2023-05-12T23:42:07.905Z,100.00
2023-05-12T23:44:54.032Z,100.00
2023-05-12T23:47:37.617Z,100.00
2023-05-12T23:50:11.417Z,100.00
2023-05-12T23:52:44.248Z,100.00
2023-05-12T23:55:20.865Z,100.00
2023-05-12T23:57:59.541Z,100.00
